Time;durP1;ratioP1;P1;durP2;ratioP2;P2;SDS_P1;SDS_P2;PMS_P1;PMS_P2;Temp;Humidity;BMP_temperature;BMP_pressure;BME280_temperature;BME280_humidity;BME280_pressure;Samples;Min_cycle;Max_cycle;Signal;HPM_P1;HPM_P2
2020/12/13 00:02:33;;;;;;;3.73;3.20;;;;;;;;;;5081616;28;20218;-77
2020/12/13 00:05:00;;;;;;;3.63;3.00;;;;;;;;;;5075077;28;20218;-77
2020/12/13 00:07:28;;;;;;;3.80;3.07;;;;;;;;;;5072650;28;20233;-80
2020/12/13 00:09:56;;;;;;;4.67;3.67;;;;;;;;;;5057983;28;20231;-79
2020/12/13 00:12:24;;;;;;;5.10;3.67;;;;;;;;;;5050955;28;20238;-81
2020/12/13 00:14:52;;;;;;;4.80;3.57;;;;;;;;;;5064161;28;20226;-77
2020/12/13 00:17:19;;;;;;;4.50;3.60;;;;;;;;;;5076764;28;20242;-79
2020/12/13 00:19:47;;;;;;;3.47;3.17;;;;;;;;;;5040894;28;20223;-81
2020/12/13 00:22:15;;;;;;;3.97;3.30;;;;;;;;;;5051882;28;20790;-79
2020/12/13 00:24:43;;;;;;;3.63;3.03;;;;;;;;;;5052087;28;20226;-79
2020/12/13 00:27:13;;;;;;;4.10;3.20;;;;;;;;;;5054450;28;20237;-78
2020/12/13 00:29:40;;;;;;;4.57;3.40;;;;;;;;;;5054353;28;20223;-79
2020/12/13 00:32:08;;;;;;;3.77;3.20;;;;;;;;;;5053903;28;20234;-79
2020/12/13 00:34:36;;;;;;;3.73;2.80;;;;;;;;;;5073641;28;20247;-80
2020/12/13 00:37:03;;;;;;;4.53;3.40;;;;;;;;;;5033063;28;20237;-79
2020/12/13 00:39:34;;;;;;;4.33;3.40;;;;;;;;;;5053490;28;20621;-78
2020/12/13 00:42:02;;;;;;;3.17;2.83;;;;;;;;;;5038746;28;20246;-81
2020/12/13 00:44:30;;;;;;;3.73;3.10;;;;;;;;;;5020796;28;20222;-80
2020/12/13 00:46:58;;;;;;;3.77;2.90;;;;;;;;;;5059395;28;20637;-79
2020/12/13 00:49:26;;;;;;;4.87;3.07;;;;;;;;;;5048536;28;20719;-80
2020/12/13 00:52:00;;;;;;;3.23;2.60;;;;;;;;;;5027285;28;21460;-78
2020/12/13 00:54:30;;;;;;;3.80;2.67;;;;;;;;;;5065825;28;20580;-79
2020/12/13 00:56:58;;;;;;;3.50;2.60;;;;;;;;;;5054789;28;20231;-77
2020/12/13 00:59:26;;;;;;;3.00;2.53;;;;;;;;;;5067155;28;20227;-79
2020/12/13 01:01:54;;;;;;;2.67;2.10;;;;;;;;;;5062170;28;20309;-78
2020/12/13 01:04:22;;;;;;;7.13;4.03;;;;;;;;;;5049280;28;20227;-78
2020/12/13 01:06:50;;;;;;;2.07;1.87;;;;;;;;;;5038710;28;20223;-78
2020/12/13 01:09:18;;;;;;;2.17;1.97;;;;;;;;;;5045535;28;20711;-79
2020/12/13 01:11:47;;;;;;;2.00;1.80;;;;;;;;;;5047803;28;20684;-78
2020/12/13 01:14:15;;;;;;;2.33;1.90;;;;;;;;;;5076902;28;20234;-79
2020/12/13 01:16:42;;;;;;;3.03;1.87;;;;;;;;;;5066934;28;20228;-79
2020/12/13 01:19:11;;;;;;;1.90;1.70;;;;;;;;;;5059165;28;20232;-79
2020/12/13 01:21:39;;;;;;;1.97;1.70;;;;;;;;;;5063728;28;20706;-79
2020/12/13 01:24:07;;;;;;;1.77;1.67;;;;;;;;;;5072514;28;20228;-78
2020/12/13 01:26:34;;;;;;;2.43;1.77;;;;;;;;;;5051006;28;20230;-82
2020/12/13 01:29:02;;;;;;;2.03;1.77;;;;;;;;;;5038479;28;20235;-79
2020/12/13 01:31:30;;;;;;;1.90;1.47;;;;;;;;;;5047406;28;20572;-79
2020/12/13 01:33:57;;;;;;;1.60;1.43;;;;;;;;;;5040955;28;20231;-78
2020/12/13 01:36:26;;;;;;;1.57;1.47;;;;;;;;;;5039418;28;20227;-80
2020/12/13 01:38:54;;;;;;;1.40;1.20;;;;;;;;;;5059699;28;20224;-80
2020/12/13 01:41:22;;;;;;;1.80;1.40;;;;;;;;;;5049686;28;20242;-80
2020/12/13 01:43:57;;;;;;;3.00;1.23;;;;;;;;;;5043593;28;20220;-81
2020/12/13 01:46:26;;;;;;;1.17;1.00;;;;;;;;;;5040149;28;20518;-80
2020/12/13 01:48:59;;;;;;;1.73;1.23;;;;;;;;;;5053155;28;20474;-80
2020/12/13 01:51:42;;;;;;;1.00;0.97;;;;;;;;;;5057490;28;20615;-80
2020/12/13 01:54:12;;;;;;;2.93;1.20;;;;;;;;;;5028997;28;20227;-81
2020/12/13 01:56:41;;;;;;;2.80;1.10;;;;;;;;;;5050337;28;20248;-80
2020/12/13 01:59:09;;;;;;;1.93;1.30;;;;;;;;;;5048817;28;20239;-80
2020/12/13 02:01:38;;;;;;;1.17;1.07;;;;;;;;;;5054529;28;20239;-82
2020/12/13 02:04:07;;;;;;;1.20;1.10;;;;;;;;;;5044776;28;20219;-81
2020/12/13 02:06:38;;;;;;;1.80;1.20;;;;;;;;;;5069345;28;20613;-80
2020/12/13 02:09:06;;;;;;;1.20;1.10;;;;;;;;;;5036036;28;20238;-82
2020/12/13 02:11:34;;;;;;;1.43;1.17;;;;;;;;;;5054208;28;20613;-81
2020/12/13 02:14:01;;;;;;;1.33;0.97;;;;;;;;;;5054045;28;20230;-81
2020/12/13 02:16:29;;;;;;;1.43;1.10;;;;;;;;;;5047453;28;20240;-83
2020/12/13 02:18:58;;;;;;;1.13;1.00;;;;;;;;;;5069328;28;20223;-83
2020/12/13 02:21:27;;;;;;;1.57;1.10;;;;;;;;;;5053931;28;20360;-83
2020/12/13 02:23:56;;;;;;;2.30;1.00;;;;;;;;;;5048683;28;20221;-81
2020/12/13 02:26:23;;;;;;;1.27;1.03;;;;;;;;;;5046462;28;20231;-81
2020/12/13 02:28:53;;;;;;;1.17;1.03;;;;;;;;;;5041732;28;20230;-84
2020/12/13 02:31:21;;;;;;;1.10;0.80;;;;;;;;;;5044191;28;20246;-81
2020/12/13 02:33:48;;;;;;;1.63;1.10;;;;;;;;;;5025753;28;20247;-82
2020/12/13 02:36:16;;;;;;;2.50;1.00;;;;;;;;;;5048849;28;20246;-82
2020/12/13 02:38:44;;;;;;;1.30;1.00;;;;;;;;;;5070166;28;20572;-83
2020/12/13 02:41:13;;;;;;;0.90;0.90;;;;;;;;;;5044217;28;20233;-82
2020/12/13 02:43:41;;;;;;;1.10;0.90;;;;;;;;;;5034863;28;20227;-84
2020/12/13 02:46:09;;;;;;;1.33;1.10;;;;;;;;;;5031037;28;20235;-84
2020/12/13 02:48:36;;;;;;;1.40;1.17;;;;;;;;;;5042678;28;20227;-82
2020/12/13 02:51:04;;;;;;;1.20;1.10;;;;;;;;;;5049534;28;20231;-82
2020/12/13 02:53:32;;;;;;;1.37;1.27;;;;;;;;;;5022290;28;20223;-82
2020/12/13 02:55:59;;;;;;;1.30;1.00;;;;;;;;;;5026172;28;20216;-81
2020/12/13 02:58:28;;;;;;;1.37;1.13;;;;;;;;;;5034043;28;20737;-81
2020/12/13 03:00:56;;;;;;;1.23;0.97;;;;;;;;;;5044314;28;20231;-81
2020/12/13 03:03:24;;;;;;;0.73;0.70;;;;;;;;;;5045068;28;20238;-80
2020/12/13 03:05:52;;;;;;;1.07;0.97;;;;;;;;;;5080735;28;20736;-82
2020/12/13 03:08:20;;;;;;;1.40;1.00;;;;;;;;;;5047685;28;20234;-80
2020/12/13 03:10:48;;;;;;;1.03;0.90;;;;;;;;;;5034237;28;20231;-82
2020/12/13 03:13:16;;;;;;;1.10;0.97;;;;;;;;;;5060796;28;20231;-81
2020/12/13 03:15:45;;;;;;;1.10;1.00;;;;;;;;;;5047107;28;20243;-81
2020/12/13 03:18:12;;;;;;;1.17;1.07;;;;;;;;;;5052166;28;20231;-80
2020/12/13 03:20:40;;;;;;;1.27;1.17;;;;;;;;;;5048326;28;20619;-81
2020/12/13 03:23:08;;;;;;;1.90;1.07;;;;;;;;;;5043904;28;20223;-81
2020/12/13 03:25:36;;;;;;;0.90;0.90;;;;;;;;;;5041834;28;20235;-81
2020/12/13 03:28:05;;;;;;;1.00;0.90;;;;;;;;;;5070168;28;20235;-80
2020/12/13 03:30:32;;;;;;;1.23;1.13;;;;;;;;;;5040912;28;20250;-82
2020/12/13 03:33:01;;;;;;;1.20;1.10;;;;;;;;;;5061958;28;20235;-81
2020/12/13 03:35:29;;;;;;;1.03;1.00;;;;;;;;;;5049934;28;20592;-80
2020/12/13 03:37:57;;;;;;;1.30;1.20;;;;;;;;;;5031013;28;20226;-81
2020/12/13 03:40:24;;;;;;;2.30;1.10;;;;;;;;;;5028855;28;20223;-82
2020/12/13 03:42:52;;;;;;;1.67;1.10;;;;;;;;;;5040812;28;20239;-81
2020/12/13 03:45:20;;;;;;;1.10;1.00;;;;;;;;;;5069918;28;20234;-81
2020/12/13 03:47:50;;;;;;;1.03;0.93;;;;;;;;;;5026121;28;20234;-82
2020/12/13 03:50:19;;;;;;;1.23;1.13;;;;;;;;;;5026021;28;20227;-82
2020/12/13 03:52:47;;;;;;;1.30;1.10;;;;;;;;;;5049786;28;20226;-83
2020/12/13 03:55:15;;;;;;;1.27;1.10;;;;;;;;;;5068466;28;20227;-80
2020/12/13 03:57:43;;;;;;;1.30;1.00;;;;;;;;;;5053213;28;20234;-82
2020/12/13 04:00:10;;;;;;;1.70;1.10;;;;;;;;;;5058018;28;20718;-80
2020/12/13 04:02:38;;;;;;;1.20;1.10;;;;;;;;;;5086539;28;20237;-82
2020/12/13 04:05:07;;;;;;;1.27;1.07;;;;;;;;;;5068790;28;20658;-80
2020/12/13 04:07:36;;;;;;;1.33;0.90;;;;;;;;;;5069649;28;20228;-82
2020/12/13 04:10:03;;;;;;;1.50;1.03;;;;;;;;;;5028719;28;20232;-83
2020/12/13 04:12:32;;;;;;;1.47;1.00;;;;;;;;;;5038072;28;20232;-81
2020/12/13 04:14:59;;;;;;;1.37;1.13;;;;;;;;;;5050163;28;20434;-81
2020/12/13 04:17:27;;;;;;;1.10;1.00;;;;;;;;;;5049329;28;20229;-82
2020/12/13 04:19:55;;;;;;;0.90;0.80;;;;;;;;;;5063616;28;20228;-80
2020/12/13 04:22:23;;;;;;;1.17;1.07;;;;;;;;;;5072710;28;20223;-80
2020/12/13 04:24:52;;;;;;;1.10;1.00;;;;;;;;;;5057651;28;20230;-82
2020/12/13 04:27:19;;;;;;;1.60;0.93;;;;;;;;;;5055078;28;20227;-81
2020/12/13 04:29:47;;;;;;;1.00;1.00;;;;;;;;;;5057723;28;20292;-81
2020/12/13 04:32:15;;;;;;;1.63;1.07;;;;;;;;;;5048090;28;20234;-81
2020/12/13 04:34:43;;;;;;;1.07;0.97;;;;;;;;;;5076704;28;20211;-79
2020/12/13 04:37:11;;;;;;;1.10;1.00;;;;;;;;;;5053033;28;20637;-79
2020/12/13 04:39:39;;;;;;;1.20;1.10;;;;;;;;;;5060439;28;20228;-80
2020/12/13 04:42:07;;;;;;;1.20;1.10;;;;;;;;;;5013940;28;20254;-82
2020/12/13 04:44:36;;;;;;;1.30;1.00;;;;;;;;;;5047407;28;20303;-81
2020/12/13 04:47:06;;;;;;;1.10;1.00;;;;;;;;;;5049982;28;20231;-80
2020/12/13 04:49:35;;;;;;;1.10;1.00;;;;;;;;;;5039548;28;20232;-81
2020/12/13 04:52:04;;;;;;;1.27;1.00;;;;;;;;;;5038826;28;20228;-80
2020/12/13 04:54:32;;;;;;;1.07;0.97;;;;;;;;;;5032933;28;20228;-80
2020/12/13 04:57:00;;;;;;;1.33;0.93;;;;;;;;;;5021278;28;20258;-80
2020/12/13 04:59:29;;;;;;;2.03;0.90;;;;;;;;;;5045589;28;20243;-80
2020/12/13 05:01:58;;;;;;;1.40;1.20;;;;;;;;;;5014714;28;20588;-81
2020/12/13 05:04:26;;;;;;;1.20;1.00;;;;;;;;;;5037101;28;20235;-84
2020/12/13 05:06:54;;;;;;;1.00;0.90;;;;;;;;;;5032671;28;20228;-80
2020/12/13 05:09:22;;;;;;;1.20;1.07;;;;;;;;;;5030592;28;20242;-81
2020/12/13 05:11:50;;;;;;;0.83;0.83;;;;;;;;;;5019350;28;20232;-82
2020/12/13 05:14:18;;;;;;;1.00;0.90;;;;;;;;;;5034531;28;20255;-81
2020/12/13 05:16:47;;;;;;;1.60;1.10;;;;;;;;;;5060241;28;20231;-81
2020/12/13 05:19:15;;;;;;;1.10;1.00;;;;;;;;;;5046118;28;20300;-81
2020/12/13 05:21:44;;;;;;;1.33;1.20;;;;;;;;;;5020156;28;20235;-80
2020/12/13 05:24:14;;;;;;;1.10;1.00;;;;;;;;;;5056424;28;20606;-82
2020/12/13 05:26:42;;;;;;;2.10;1.40;;;;;;;;;;5033099;28;20235;-83
2020/12/13 05:29:15;;;;;;;1.10;1.00;;;;;;;;;;5028234;28;20232;-82
2020/12/13 05:31:43;;;;;;;1.30;1.00;;;;;;;;;;5044483;28;20227;-80
2020/12/13 05:34:16;;;;;;;1.20;1.10;;;;;;;;;;5068909;28;20220;-82
2020/12/13 05:36:45;;;;;;;1.47;1.30;;;;;;;;;;5028358;28;20243;-82
2020/12/13 05:39:13;;;;;;;1.20;1.10;;;;;;;;;;5027567;28;20228;-82
2020/12/13 05:41:41;;;;;;;1.27;1.17;;;;;;;;;;5035394;28;20708;-82
2020/12/13 05:44:24;;;;;;;1.30;1.20;;;;;;;;;;5034490;28;20230;-82
2020/12/13 05:47:01;;;;;;;1.40;1.30;;;;;;;;;;5030147;28;20242;-81
2020/12/13 05:52:15;;;;;;;1.50;1.33;;;;;;;;;;5046413;28;20235;-84
2020/12/13 05:54:45;;;;;;;1.63;1.50;;;;;;;;;;5018271;28;20236;-82
2020/12/13 05:57:14;;;;;;;1.57;1.37;;;;;;;;;;5039625;28;20236;-84
2020/12/13 05:59:41;;;;;;;2.30;1.70;;;;;;;;;;5042134;28;20228;-82
2020/12/13 06:02:11;;;;;;;1.30;1.20;;;;;;;;;;5019979;28;20234;-82
2020/12/13 06:04:42;;;;;;;2.33;1.50;;;;;;;;;;5045097;28;20218;-84
2020/12/13 06:07:12;;;;;;;1.73;1.57;;;;;;;;;;5008669;28;20224;-83
2020/12/13 06:09:40;;;;;;;1.67;1.40;;;;;;;;;;5037113;28;20242;-81
2020/12/13 06:12:10;;;;;;;2.20;1.60;;;;;;;;;;5042628;28;20235;-81
2020/12/13 06:14:39;;;;;;;2.13;1.80;;;;;;;;;;5059216;28;20242;-81
2020/12/13 06:17:08;;;;;;;2.80;1.50;;;;;;;;;;5054457;28;20242;-81
2020/12/13 06:19:37;;;;;;;2.40;1.70;;;;;;;;;;5060408;28;20223;-82
2020/12/13 06:22:13;;;;;;;1.97;1.47;;;;;;;;;;5050405;28;20233;-83
2020/12/13 06:24:45;;;;;;;1.60;1.30;;;;;;;;;;5056675;28;20230;-82
2020/12/13 06:27:13;;;;;;;1.77;1.57;;;;;;;;;;5029677;28;20231;-82
2020/12/13 06:29:42;;;;;;;1.93;1.63;;;;;;;;;;5057622;28;20231;-80
2020/12/13 06:32:10;;;;;;;1.50;1.37;;;;;;;;;;5029453;28;20238;-82
2020/12/13 06:34:43;;;;;;;1.77;1.67;;;;;;;;;;5062590;28;20230;-83
2020/12/13 06:37:13;;;;;;;1.90;1.40;;;;;;;;;;5069676;28;20230;-83
2020/12/13 06:39:41;;;;;;;1.60;1.50;;;;;;;;;;5051650;28;20238;-80
2020/12/13 06:42:10;;;;;;;1.57;1.40;;;;;;;;;;5074349;28;20719;-80
2020/12/13 06:44:38;;;;;;;1.50;1.40;;;;;;;;;;5045277;28;20232;-80
2020/12/13 06:47:24;;;;;;;1.87;1.60;;;;;;;;;;5065145;28;20713;-82
2020/12/13 06:49:52;;;;;;;1.50;1.40;;;;;;;;;;5005891;28;20232;-79
2020/12/13 06:52:31;;;;;;;2.13;1.47;;;;;;;;;;5016327;28;20224;-79
2020/12/13 06:55:06;;;;;;;1.43;1.30;;;;;;;;;;5055014;28;20227;-81
2020/12/13 06:57:35;;;;;;;2.20;1.67;;;;;;;;;;5022582;28;20235;-81
2020/12/13 07:00:06;;;;;;;2.03;1.50;;;;;;;;;;5038010;28;20280;-81
2020/12/13 07:02:45;;;;;;;1.60;1.50;;;;;;;;;;5006371;28;20306;-80
2020/12/13 07:05:13;;;;;;;1.90;1.57;;;;;;;;;;5062251;28;20211;-83
2020/12/13 07:07:46;;;;;;;2.20;1.63;;;;;;;;;;5063945;28;20212;-81
2020/12/13 07:10:14;;;;;;;1.73;1.53;;;;;;;;;;5063759;28;20295;-81
2020/12/13 07:12:48;;;;;;;3.50;1.87;;;;;;;;;;5046165;28;20235;-80
2020/12/13 07:15:22;;;;;;;1.50;1.40;;;;;;;;;;5057093;28;20244;-81
2020/12/13 07:17:50;;;;;;;2.43;1.60;;;;;;;;;;5026518;28;20223;-79
2020/12/13 07:20:20;;;;;;;3.77;1.57;;;;;;;;;;5003621;28;20720;-80
2020/12/13 07:22:55;;;;;;;1.73;1.33;;;;;;;;;;5012739;28;20227;-82
2020/12/13 07:25:23;;;;;;;2.70;1.70;;;;;;;;;;5048848;28;20574;-80
2020/12/13 07:27:51;;;;;;;6.23;1.53;;;;;;;;;;5017164;28;20223;-79
2020/12/13 07:30:19;;;;;;;1.57;1.40;;;;;;;;;;5028712;28;20231;-79
2020/12/13 07:32:47;;;;;;;1.97;1.60;;;;;;;;;;5049427;28;20570;-80
2020/12/13 07:35:16;;;;;;;1.87;1.43;;;;;;;;;;5021636;28;20219;-80
2020/12/13 07:37:45;;;;;;;1.53;1.43;;;;;;;;;;5013965;28;20231;-80
2020/12/13 07:40:14;;;;;;;2.27;1.40;;;;;;;;;;5050487;28;20219;-78
2020/12/13 07:42:56;;;;;;;2.17;1.57;;;;;;;;;;5018980;28;20227;-79
2020/12/13 07:45:23;;;;;;;1.93;1.40;;;;;;;;;;5054872;28;20234;-80
2020/12/13 07:48:00;;;;;;;2.07;1.57;;;;;;;;;;5047272;28;20229;-79
2020/12/13 07:50:29;;;;;;;1.77;1.33;;;;;;;;;;5078830;28;20226;-79
2020/12/13 07:52:56;;;;;;;1.37;1.27;;;;;;;;;;5068750;28;20223;-79
2020/12/13 07:55:25;;;;;;;1.43;1.30;;;;;;;;;;5071473;28;20226;-80
2020/12/13 07:57:53;;;;;;;1.37;1.23;;;;;;;;;;5052985;28;20223;-81
2020/12/13 08:00:21;;;;;;;3.57;2.23;;;;;;;;;;5068416;28;20222;-79
2020/12/13 08:02:48;;;;;;;2.13;1.87;;;;;;;;;;5044609;28;20233;-78
2020/12/13 08:05:24;;;;;;;2.03;1.40;;;;;;;;;;5038098;28;20234;-79
2020/12/13 08:07:59;;;;;;;2.80;1.70;;;;;;;;;;5070237;28;20226;-80
2020/12/13 08:10:28;;;;;;;2.07;1.70;;;;;;;;;;5049240;28;20238;-81
2020/12/13 08:12:57;;;;;;;1.80;1.50;;;;;;;;;;5037692;28;20317;-80
2020/12/13 08:15:24;;;;;;;2.10;1.90;;;;;;;;;;5070829;28;20614;-81
2020/12/13 08:18:02;;;;;;;2.00;1.80;;;;;;;;;;5045531;28;20249;-79
2020/12/13 08:20:33;;;;;;;2.33;1.70;;;;;;;;;;5053350;28;20227;-79
2020/12/13 08:23:02;;;;;;;2.37;1.80;;;;;;;;;;5049432;28;20249;-79
2020/12/13 08:25:31;;;;;;;2.43;1.87;;;;;;;;;;5035805;28;20223;-79
2020/12/13 08:27:59;;;;;;;2.13;1.70;;;;;;;;;;5058370;28;20704;-78
2020/12/13 08:30:28;;;;;;;2.23;1.63;;;;;;;;;;5060261;28;20708;-80
2020/12/13 08:32:59;;;;;;;1.90;1.60;;;;;;;;;;5051852;28;20227;-81
2020/12/13 08:35:28;;;;;;;2.03;1.60;;;;;;;;;;5025361;28;20228;-79
2020/12/13 08:37:57;;;;;;;2.60;1.80;;;;;;;;;;5003020;28;20433;-78
2020/12/13 08:40:36;;;;;;;2.77;1.97;;;;;;;;;;5066330;28;20592;-79
2020/12/13 08:43:04;;;;;;;2.50;1.97;;;;;;;;;;5034421;28;20469;-80
2020/12/13 08:45:32;;;;;;;1.67;1.50;;;;;;;;;;5006480;28;20242;-79
2020/12/13 08:48:08;;;;;;;1.77;1.60;;;;;;;;;;5043670;28;20219;-80
2020/12/13 08:50:40;;;;;;;2.00;1.60;;;;;;;;;;5034027;28;20235;-78
2020/12/13 08:53:21;;;;;;;1.47;1.37;;;;;;;;;;5061148;28;20226;-77
2020/12/13 08:56:02;;;;;;;2.47;1.90;;;;;;;;;;5061429;28;20230;-81
2020/12/13 08:58:30;;;;;;;2.33;2.03;;;;;;;;;;5047169;28;20736;-81
2020/12/13 09:01:05;;;;;;;2.40;1.80;;;;;;;;;;5068903;28;20230;-80
2020/12/13 09:03:33;;;;;;;2.13;1.63;;;;;;;;;;5023451;28;20235;-79
2020/12/13 09:06:01;;;;;;;1.40;1.30;;;;;;;;;;5040306;28;20231;-80
2020/12/13 09:08:29;;;;;;;2.00;1.80;;;;;;;;;;5033339;28;20231;-78
2020/12/13 09:11:03;;;;;;;2.23;1.83;;;;;;;;;;5032999;28;20219;-80
2020/12/13 09:13:32;;;;;;;1.97;1.60;;;;;;;;;;5030129;28;20232;-80
2020/12/13 09:16:04;;;;;;;2.70;1.67;;;;;;;;;;5067139;28;20215;-79
2020/12/13 09:18:32;;;;;;;2.00;1.40;;;;;;;;;;5033590;28;20235;-81
2020/12/13 09:21:00;;;;;;;2.13;1.50;;;;;;;;;;4998536;28;20223;-80
2020/12/13 09:23:28;;;;;;;1.87;1.47;;;;;;;;;;5012063;28;20228;-80
2020/12/13 09:25:57;;;;;;;1.73;1.63;;;;;;;;;;5049577;28;20713;-82
2020/12/13 09:28:25;;;;;;;2.50;1.50;;;;;;;;;;5046878;28;20238;-78
2020/12/13 09:30:53;;;;;;;2.20;1.47;;;;;;;;;;5037414;28;20709;-80
2020/12/13 09:33:21;;;;;;;4.17;1.60;;;;;;;;;;5043140;28;20230;-83
2020/12/13 09:35:49;;;;;;;1.77;1.43;;;;;;;;;;5046174;28;20231;-80
2020/12/13 09:38:16;;;;;;;1.80;1.40;;;;;;;;;;5028771;28;20231;-78
2020/12/13 09:40:45;;;;;;;1.83;1.50;;;;;;;;;;5026370;28;21507;-80
2020/12/13 09:43:12;;;;;;;1.67;1.43;;;;;;;;;;5027615;28;20254;-79
2020/12/13 09:45:40;;;;;;;4.93;2.60;;;;;;;;;;5017364;28;20234;-80
2020/12/13 09:48:08;;;;;;;1.87;1.67;;;;;;;;;;5032200;28;20227;-78
2020/12/13 09:50:36;;;;;;;2.07;1.43;;;;;;;;;;5081019;28;20222;-79
2020/12/13 09:53:05;;;;;;;1.40;1.30;;;;;;;;;;5068996;28;20760;-78
2020/12/13 09:55:33;;;;;;;1.60;1.50;;;;;;;;;;5033327;28;20225;-79
2020/12/13 09:58:00;;;;;;;1.40;1.30;;;;;;;;;;5045913;28;20601;-79
2020/12/13 10:00:28;;;;;;;1.97;1.73;;;;;;;;;;5063157;28;20227;-79
2020/12/13 10:02:56;;;;;;;3.37;1.63;;;;;;;;;;5016239;28;20241;-78
2020/12/13 10:05:29;;;;;;;2.17;1.70;;;;;;;;;;5067743;28;20216;-81
2020/12/13 10:10:43;;;;;;;2.23;1.20;;;;;;;;;;5032964;28;20227;-79
2020/12/13 10:13:10;;;;;;;1.50;1.40;;;;;;;;;;5027568;28;20238;-80
2020/12/13 10:15:38;;;;;;;1.53;1.30;;;;;;;;;;5051645;28;20253;-79
2020/12/13 10:18:06;;;;;;;4.07;1.50;;;;;;;;;;5059781;28;20230;-83
2020/12/13 10:20:40;;;;;;;2.67;1.63;;;;;;;;;;5038879;28;20234;-79
2020/12/13 10:23:09;;;;;;;2.63;1.47;;;;;;;;;;5027329;28;20223;-79
2020/12/13 10:25:37;;;;;;;2.37;1.57;;;;;;;;;;5027070;28;20580;-79
2020/12/13 10:28:05;;;;;;;1.77;1.50;;;;;;;;;;5031356;28;20222;-80
2020/12/13 10:30:32;;;;;;;3.50;1.40;;;;;;;;;;5026333;28;20234;-81
2020/12/13 10:33:00;;;;;;;2.57;1.53;;;;;;;;;;5019184;28;20226;-79
2020/12/13 10:35:28;;;;;;;2.97;1.50;;;;;;;;;;5062012;28;20219;-80
2020/12/13 10:37:56;;;;;;;2.07;1.87;;;;;;;;;;5030384;28;20234;-79
2020/12/13 10:40:24;;;;;;;2.23;2.03;;;;;;;;;;5041202;28;20234;-81
2020/12/13 10:42:53;;;;;;;3.97;2.20;;;;;;;;;;5046301;28;20245;-79
2020/12/13 10:45:20;;;;;;;1.63;1.37;;;;;;;;;;5016878;28;20239;-79
2020/12/13 10:47:48;;;;;;;3.80;2.03;;;;;;;;;;5044178;28;20230;-79
2020/12/13 10:50:16;;;;;;;1.77;1.40;;;;;;;;;;5043058;28;20230;-79
2020/12/13 10:52:44;;;;;;;1.80;1.20;;;;;;;;;;5060976;28;20234;-80
2020/12/13 10:55:12;;;;;;;2.50;1.50;;;;;;;;;;5027864;28;20229;-83
2020/12/13 10:57:42;;;;;;;4.87;2.13;;;;;;;;;;5033299;28;20242;-80
2020/12/13 11:00:12;;;;;;;3.47;1.53;;;;;;;;;;5046930;28;20778;-81
2020/12/13 11:02:41;;;;;;;6.63;2.30;;;;;;;;;;5052287;28;20234;-79
2020/12/13 11:05:09;;;;;;;4.23;2.10;;;;;;;;;;5059045;28;20227;-80
2020/12/13 11:07:37;;;;;;;4.73;1.67;;;;;;;;;;5048191;28;20233;-78
2020/12/13 11:10:04;;;;;;;5.57;1.67;;;;;;;;;;5034129;28;20298;-79
2020/12/13 11:12:32;;;;;;;3.63;1.60;;;;;;;;;;5033240;28;20242;-79
2020/12/13 11:15:00;;;;;;;5.13;1.50;;;;;;;;;;5071960;28;20738;-77
2020/12/13 11:17:27;;;;;;;1.93;1.53;;;;;;;;;;5016520;28;20227;-83
2020/12/13 11:19:55;;;;;;;2.53;1.20;;;;;;;;;;5035945;28;20231;-78
2020/12/13 11:22:22;;;;;;;4.97;1.37;;;;;;;;;;5044764;28;20223;-85
2020/12/13 11:24:50;;;;;;;3.07;1.53;;;;;;;;;;5012462;28;20230;-83
2020/12/13 11:27:17;;;;;;;3.23;1.30;;;;;;;;;;5040951;28;20223;-81
2020/12/13 11:29:46;;;;;;;2.83;1.37;;;;;;;;;;5052928;28;20214;-78
2020/12/13 11:32:13;;;;;;;2.47;1.53;;;;;;;;;;5033270;28;20725;-81
2020/12/13 11:34:41;;;;;;;2.97;1.23;;;;;;;;;;4999871;28;20231;-78
2020/12/13 11:37:09;;;;;;;2.53;1.07;;;;;;;;;;5036310;28;20712;-79
2020/12/13 11:39:36;;;;;;;4.87;1.40;;;;;;;;;;5043495;28;20602;-81
2020/12/13 11:42:06;;;;;;;3.33;1.30;;;;;;;;;;5045140;28;20238;-80
2020/12/13 11:44:45;;;;;;;6.43;1.40;;;;;;;;;;5088199;27;20551;-83
2020/12/13 11:47:13;;;;;;;4.13;1.30;;;;;;;;;;5061315;28;20222;-81
2020/12/13 11:49:41;;;;;;;4.80;1.20;;;;;;;;;;5070100;28;20669;-78
2020/12/13 11:52:09;;;;;;;2.43;1.10;;;;;;;;;;5044876;28;20234;-78
2020/12/13 11:54:36;;;;;;;3.80;1.07;;;;;;;;;;5080053;28;20230;-81
2020/12/13 11:57:04;;;;;;;2.60;1.50;;;;;;;;;;5072805;28;20222;-81
2020/12/13 11:59:32;;;;;;;2.50;1.00;;;;;;;;;;5079831;28;20224;-78
2020/12/13 12:02:00;;;;;;;3.50;1.17;;;;;;;;;;5053417;28;20222;-78
2020/12/13 12:04:28;;;;;;;5.70;1.30;;;;;;;;;;5069711;28;20222;-81
2020/12/13 12:06:56;;;;;;;2.60;1.27;;;;;;;;;;5066388;28;20225;-78
2020/12/13 12:09:23;;;;;;;4.50;1.50;;;;;;;;;;5090671;28;20221;-80
2020/12/13 12:11:51;;;;;;;3.13;0.97;;;;;;;;;;5080641;28;20605;-81
2020/12/13 12:14:18;;;;;;;2.27;1.10;;;;;;;;;;5079867;28;20229;-79
2020/12/13 12:16:46;;;;;;;6.53;2.50;;;;;;;;;;5066633;28;20699;-78
2020/12/13 12:19:14;;;;;;;2.17;0.90;;;;;;;;;;5083370;28;20237;-80
2020/12/13 12:21:44;;;;;;;2.60;1.30;;;;;;;;;;5079592;28;20699;-80
2020/12/13 12:24:14;;;;;;;2.43;1.20;;;;;;;;;;5078560;28;20218;-78
2020/12/13 12:26:41;;;;;;;3.13;1.20;;;;;;;;;;5078516;28;20214;-82
2020/12/13 12:29:08;;;;;;;2.87;1.40;;;;;;;;;;5042874;28;20234;-78
2020/12/13 12:31:37;;;;;;;3.60;1.47;;;;;;;;;;5033082;28;20230;-79
2020/12/13 12:34:05;;;;;;;2.77;1.30;;;;;;;;;;5043874;28;20218;-79
2020/12/13 12:36:33;;;;;;;2.53;1.60;;;;;;;;;;5051873;28;20237;-78
2020/12/13 12:39:01;;;;;;;4.00;1.70;;;;;;;;;;5079036;28;20230;-83
2020/12/13 12:41:28;;;;;;;4.47;1.33;;;;;;;;;;5052743;28;20231;-78
2020/12/13 12:43:56;;;;;;;3.13;1.30;;;;;;;;;;5058030;28;20229;-79
2020/12/13 12:46:24;;;;;;;5.23;1.73;;;;;;;;;;5058423;28;20219;-81
2020/12/13 12:48:51;;;;;;;2.50;1.60;;;;;;;;;;5077649;28;20225;-78
2020/12/13 12:51:19;;;;;;;2.70;1.43;;;;;;;;;;5079775;28;20234;-78
2020/12/13 12:53:48;;;;;;;4.93;1.60;;;;;;;;;;5081830;28;20229;-84
2020/12/13 12:56:15;;;;;;;2.73;1.50;;;;;;;;;;5059354;28;20238;-80
2020/12/13 12:58:56;;;;;;;4.30;1.53;;;;;;;;;;5067829;28;20227;-78
2020/12/13 13:01:31;;;;;;;4.47;1.40;;;;;;;;;;5054654;28;20235;-81
2020/12/13 13:04:01;;;;;;;4.30;1.40;;;;;;;;;;5072254;28;20233;-80
2020/12/13 13:06:45;;;;;;;4.73;1.37;;;;;;;;;;5054510;28;20731;-77
2020/12/13 13:09:25;;;;;;;3.13;1.20;;;;;;;;;;5041760;28;20226;-79
2020/12/13 13:11:53;;;;;;;4.50;1.20;;;;;;;;;;5045862;28;20226;-80
2020/12/13 13:14:21;;;;;;;3.37;1.10;;;;;;;;;;5040466;28;20253;-78
2020/12/13 13:16:53;;;;;;;4.47;1.10;;;;;;;;;;5050614;28;20214;-84
2020/12/13 13:19:21;;;;;;;6.13;1.63;;;;;;;;;;5060580;28;20262;-81
2020/12/13 13:21:49;;;;;;;4.60;1.03;;;;;;;;;;5060401;28;20219;-80
2020/12/13 13:24:17;;;;;;;1.73;1.30;;;;;;;;;;5055004;28;20451;-77
2020/12/13 13:26:44;;;;;;;4.20;1.40;;;;;;;;;;5061625;28;20704;-83
2020/12/13 13:29:12;;;;;;;4.93;1.20;;;;;;;;;;5059720;28;20232;-79
2020/12/13 13:31:40;;;;;;;3.07;1.03;;;;;;;;;;5057930;28;20226;-78
2020/12/13 13:34:08;;;;;;;2.27;1.10;;;;;;;;;;5051669;28;20226;-80
2020/12/13 13:36:35;;;;;;;4.20;1.40;;;;;;;;;;5048046;28;20234;-78
2020/12/13 13:39:03;;;;;;;4.97;1.30;;;;;;;;;;5054110;28;20219;-78
2020/12/13 13:41:33;;;;;;;2.97;1.13;;;;;;;;;;5032760;28;20234;-78
2020/12/13 13:44:03;;;;;;;4.00;1.30;;;;;;;;;;5035583;28;20231;-87
2020/12/13 13:46:41;;;;;;;5.17;1.33;;;;;;;;;;5019681;28;20229;-79
2020/12/13 13:49:58;;;;;;;3.23;1.20;;;;;;;;;;5022527;28;20231;-81
2020/12/13 13:52:18;;;;;;;2.60;1.17;;;;;;;;;;5042241;28;20235;-83
2020/12/13 13:54:49;;;;;;;2.13;1.20;;;;;;;;;;5033443;28;21384;-84
2020/12/13 13:57:20;;;;;;;2.80;1.10;;;;;;;;;;5037690;28;20242;-81
2020/12/13 13:59:48;;;;;;;5.27;1.23;;;;;;;;;;5067252;28;20226;-89
2020/12/13 14:02:15;;;;;;;5.03;1.20;;;;;;;;;;5056238;28;20230;-80
2020/12/13 14:04:43;;;;;;;3.57;1.50;;;;;;;;;;5073375;28;20226;-81
2020/12/13 14:10:01;;;;;;;3.90;1.30;;;;;;;;;;5073530;28;20211;-82
2020/12/13 14:12:29;;;;;;;2.20;1.23;;;;;;;;;;5058023;28;20223;-87
2020/12/13 14:14:59;;;;;;;3.73;1.33;;;;;;;;;;5054294;28;20219;-84
2020/12/13 14:17:28;;;;;;;3.23;1.43;;;;;;;;;;5054283;28;20723;-82
2020/12/13 14:19:56;;;;;;;6.07;1.73;;;;;;;;;;5052880;28;20230;-85
2020/12/13 14:22:23;;;;;;;3.10;1.47;;;;;;;;;;5035689;28;20242;-79
2020/12/13 14:24:51;;;;;;;4.27;1.40;;;;;;;;;;5054362;28;20735;-79
2020/12/13 14:27:18;;;;;;;4.00;1.30;;;;;;;;;;5035733;28;20641;-83
2020/12/13 14:29:48;;;;;;;4.77;1.60;;;;;;;;;;5032531;28;21390;-79
2020/12/13 14:32:16;;;;;;;6.40;1.40;;;;;;;;;;5047959;28;20234;-79
2020/12/13 14:34:45;;;;;;;3.07;1.37;;;;;;;;;;5057222;28;20226;-85
2020/12/13 14:37:13;;;;;;;2.30;1.73;;;;;;;;;;5041806;28;20227;-82
2020/12/13 14:39:40;;;;;;;2.60;1.23;;;;;;;;;;5024920;28;20219;-81
2020/12/13 14:42:08;;;;;;;2.97;1.30;;;;;;;;;;5055484;28;20220;-79
2020/12/13 14:44:35;;;;;;;5.97;1.70;;;;;;;;;;5055285;28;20226;-80
2020/12/13 14:47:04;;;;;;;3.73;1.80;;;;;;;;;;5061468;28;20238;-78
2020/12/13 14:49:32;;;;;;;2.83;1.20;;;;;;;;;;5042755;28;20226;-79
2020/12/13 14:51:59;;;;;;;4.47;1.53;;;;;;;;;;5065117;28;20695;-79
2020/12/13 14:54:37;;;;;;;2.00;1.30;;;;;;;;;;5038558;28;20464;-81
2020/12/13 14:57:05;;;;;;;3.20;1.30;;;;;;;;;;5044723;28;20313;-84
2020/12/13 14:59:32;;;;;;;3.57;1.10;;;;;;;;;;5056529;28;20231;-79
2020/12/13 15:02:20;;;;;;;4.20;1.67;;;;;;;;;;5047978;28;20252;-86
2020/12/13 15:04:48;;;;;;;4.77;2.10;;;;;;;;;;5063548;28;20223;-79